createdAt,value
2018-02-20T00:00:40.888Z,8.00
2018-02-20T00:01:40.846Z,8.00
2018-02-20T00:02:40.863Z,8.00
2018-02-20T00:03:40.820Z,4.00
2018-02-20T00:04:42.312Z,4.00
2018-02-20T00:05:40.799Z,0.00
2018-02-20T00:06:41.859Z,0.00
2018-02-20T00:07:40.726Z,0.00
2018-02-20T00:08:40.696Z,0.00
2018-02-20T00:09:40.828Z,0.00
2018-02-20T00:10:40.668Z,0.00
2018-02-20T00:11:40.629Z,0.00
2018-02-20T00:12:40.603Z,0.00
2018-02-20T00:13:40.570Z,0.00
2018-02-20T00:14:40.626Z,0.00
2018-02-20T00:15:40.640Z,0.00
2018-02-20T00:16:40.549Z,0.00
2018-02-20T00:17:40.505Z,0.00
2018-02-20T00:18:40.483Z,0.00
2018-02-20T00:19:40.449Z,0.00
2018-02-20T00:20:40.437Z,0.00
2018-02-20T00:21:40.538Z,0.00
2018-02-20T00:22:40.372Z,0.00
2018-02-20T00:23:40.352Z,0.00
2018-02-20T00:24:40.846Z,0.00
2018-02-20T00:25:40.322Z,0.00
2018-02-20T00:26:40.291Z,0.00
2018-02-20T00:27:40.448Z,0.00
2018-02-20T00:28:40.254Z,0.00
2018-02-20T00:29:40.214Z,0.00
2018-02-20T00:30:40.183Z,0.00
2018-02-20T00:31:40.179Z,0.00
2018-02-20T00:32:40.234Z,0.00
2018-02-20T00:33:40.118Z,0.00
2018-02-20T00:34:40.132Z,0.00
2018-02-20T00:35:40.081Z,0.00
2018-02-20T00:36:40.060Z,0.00
2018-02-20T00:37:40.185Z,0.00
2018-02-20T00:38:40.036Z,0.00
2018-02-20T00:39:39.996Z,0.00
2018-02-20T00:40:39.963Z,0.00
2018-02-20T00:41:39.925Z,0.00
2018-02-20T00:42:40.556Z,0.00
2018-02-20T00:43:40.314Z,0.00
2018-02-20T00:44:39.873Z,0.00
2018-02-20T00:45:40.264Z,0.00
2018-02-20T00:46:39.833Z,0.00
2018-02-20T00:47:40.414Z,0.00
2018-02-20T00:48:40.454Z,0.00
2018-02-20T00:49:39.754Z,0.00
2018-02-20T00:50:40.249Z,0.00
2018-02-20T00:51:40.213Z,0.00
2018-02-20T00:52:39.708Z,0.00
2018-02-20T00:53:39.699Z,0.00
2018-02-20T00:54:39.738Z,0.00
2018-02-20T00:55:39.608Z,0.00
2018-02-20T00:56:39.587Z,0.00
2018-02-20T00:57:39.548Z,0.00
2018-02-20T00:58:40.108Z,0.00
2018-02-20T00:59:40.138Z,0.00
2018-02-20T01:00:39.497Z,0.00
2018-02-20T01:01:39.987Z,0.00
2018-02-20T01:02:39.860Z,0.00
2018-02-20T01:03:39.836Z,0.00
2018-02-20T01:04:39.920Z,0.00
2018-02-20T01:05:39.468Z,0.00
2018-02-20T01:06:39.879Z,0.00
2018-02-20T01:07:39.353Z,0.00
2018-02-20T01:08:39.905Z,0.00
2018-02-20T01:09:39.272Z,0.00
2018-02-20T01:10:39.243Z,0.00
2018-02-20T01:11:39.315Z,0.00
2018-02-20T01:12:39.203Z,0.00
2018-02-20T01:13:39.178Z,0.00
2018-02-20T01:14:39.154Z,0.00
2018-02-20T01:15:39.122Z,0.00
2018-02-20T01:16:39.182Z,0.00
2018-02-20T01:17:39.603Z,0.00
2018-02-20T01:18:39.570Z,0.00
2018-02-20T01:19:39.552Z,0.00
2018-02-20T01:20:39.534Z,0.00
2018-02-20T01:21:39.071Z,0.00
2018-02-20T01:22:38.953Z,0.00
2018-02-20T01:23:39.451Z,0.00
2018-02-20T01:24:38.908Z,0.00
2018-02-20T01:25:38.882Z,0.00
2018-02-20T01:26:39.127Z,0.00
2018-02-20T01:27:38.975Z,0.00
2018-02-20T01:28:39.322Z,0.00
2018-02-20T01:29:38.787Z,0.00
2018-02-20T01:30:38.756Z,0.00
2018-02-20T01:31:38.836Z,0.00
2018-02-20T01:32:39.285Z,0.00
2018-02-20T01:33:39.298Z,0.00
2018-02-20T01:34:39.382Z,0.00
2018-02-20T01:35:38.630Z,0.00
2018-02-20T01:36:39.184Z,0.00
2018-02-20T01:37:39.186Z,0.00
2018-02-20T01:38:38.664Z,0.00
2018-02-20T01:39:39.073Z,0.00
2018-02-20T01:40:38.992Z,0.00
2018-02-20T01:41:39.030Z,0.00
2018-02-20T01:42:38.447Z,0.00
2018-02-20T01:43:38.447Z,0.00
2018-02-20T01:44:39.768Z,0.00
2018-02-20T01:45:38.918Z,0.00
2018-02-20T01:46:38.372Z,0.00
2018-02-20T01:47:38.331Z,0.00
2018-02-20T01:48:38.332Z,0.00
2018-02-20T01:49:38.278Z,0.00
2018-02-20T01:50:38.421Z,0.00
2018-02-20T01:51:38.668Z,0.00
2018-02-20T01:52:38.213Z,0.00
2018-02-20T01:53:38.203Z,0.00
2018-02-20T01:54:38.664Z,0.00
2018-02-20T01:55:38.320Z,0.00
2018-02-20T01:56:38.110Z,0.00
2018-02-20T01:57:38.104Z,0.00
2018-02-20T01:58:38.602Z,0.00
2018-02-20T01:59:38.583Z,0.00
2018-02-20T02:00:38.171Z,0.00
2018-02-20T02:01:38.954Z,0.00
2018-02-20T02:02:37.976Z,0.00
2018-02-20T02:03:38.482Z,0.00
2018-02-20T02:04:37.926Z,0.00
2018-02-20T02:05:38.482Z,0.00
2018-02-20T02:06:38.563Z,0.00
2018-02-20T02:07:38.445Z,0.00
2018-02-20T02:08:38.363Z,0.00
2018-02-20T02:09:37.798Z,0.00
2018-02-20T02:10:37.787Z,0.00
2018-02-20T02:11:37.859Z,0.00
2018-02-20T02:12:37.749Z,0.00
2018-02-20T02:13:37.686Z,0.00
2018-02-20T02:14:37.665Z,0.00
2018-02-20T02:15:38.172Z,0.00
2018-02-20T02:16:37.759Z,0.00
2018-02-20T02:17:37.606Z,0.00
2018-02-20T02:18:38.111Z,0.00
2018-02-20T02:19:37.542Z,0.00
2018-02-20T02:20:37.626Z,0.00
2018-02-20T02:21:37.718Z,0.00
2018-02-20T02:22:37.471Z,0.00
2018-02-20T02:23:37.458Z,0.00
2018-02-20T02:24:37.426Z,0.00
2018-02-20T02:25:37.390Z,0.00
2018-02-20T02:26:37.365Z,0.00
2018-02-20T02:27:37.574Z,0.00
2018-02-20T02:28:37.333Z,0.00
2018-02-20T02:29:38.042Z,0.00
2018-02-20T02:30:37.352Z,0.00
2018-02-20T02:31:37.764Z,0.00
2018-02-20T02:32:37.342Z,0.00
2018-02-20T02:33:37.345Z,0.00
2018-02-20T02:34:37.209Z,0.00
2018-02-20T02:35:37.177Z,0.00
2018-02-20T02:36:37.135Z,0.00
2018-02-20T02:37:37.304Z,0.00
2018-02-20T02:38:37.101Z,0.00
2018-02-20T02:39:37.104Z,0.00
2018-02-20T02:40:37.792Z,0.00
2018-02-20T02:41:37.056Z,0.00
2018-02-20T02:42:37.043Z,0.00
2018-02-20T02:43:37.599Z,0.00
2018-02-20T02:44:36.956Z,0.00
2018-02-20T02:45:36.906Z,0.00
2018-02-20T02:46:36.885Z,0.00
2018-02-20T02:47:36.914Z,0.00
2018-02-20T02:48:36.949Z,0.00
2018-02-20T02:49:37.334Z,0.00
2018-02-20T02:50:36.786Z,0.00
2018-02-20T02:51:36.744Z,0.00
2018-02-20T02:52:37.176Z,0.00
2018-02-20T02:53:36.814Z,0.00
2018-02-20T02:54:37.287Z,0.00
2018-02-20T02:55:36.710Z,0.00
2018-02-20T02:56:37.146Z,0.00
2018-02-20T02:57:37.131Z,0.00
2018-02-20T02:58:36.703Z,0.00
2018-02-20T02:59:36.563Z,0.00
2018-02-20T03:00:37.042Z,0.00
2018-02-20T03:01:36.581Z,0.00
2018-02-20T03:02:37.008Z,0.00
2018-02-20T03:03:36.986Z,0.00
2018-02-20T03:04:36.531Z,0.00
2018-02-20T03:05:36.408Z,0.00
2018-02-20T03:06:36.917Z,0.00
2018-02-20T03:07:36.409Z,0.00
2018-02-20T03:08:36.919Z,0.00
2018-02-20T03:09:36.312Z,0.00
2018-02-20T03:10:36.421Z,0.00
2018-02-20T03:11:36.787Z,0.00
2018-02-20T03:12:36.768Z,0.00
2018-02-20T03:13:36.216Z,0.00
2018-02-20T03:14:36.232Z,0.00
2018-02-20T03:15:36.301Z,0.00
2018-02-20T03:16:36.299Z,0.00
2018-02-20T03:17:36.699Z,0.00
2018-02-20T03:18:36.116Z,0.00
2018-02-20T03:19:36.073Z,0.00
2018-02-20T03:20:36.033Z,0.00
2018-02-20T03:21:36.178Z,0.00
2018-02-20T03:22:36.100Z,0.00
2018-02-20T03:23:36.541Z,0.00
2018-02-20T03:24:35.952Z,0.00
2018-02-20T03:25:35.917Z,0.00
2018-02-20T03:26:35.916Z,0.00
2018-02-20T03:27:36.009Z,0.00
2018-02-20T03:28:36.384Z,0.00
2018-02-20T03:29:35.973Z,0.00
2018-02-20T03:30:35.842Z,0.00
2018-02-20T03:31:35.775Z,0.00
2018-02-20T03:32:35.855Z,0.00
2018-02-20T03:33:35.706Z,0.00
2018-02-20T03:34:35.699Z,0.00
2018-02-20T03:35:35.687Z,0.00
2018-02-20T03:36:35.655Z,0.00
2018-02-20T03:37:35.763Z,0.00
2018-02-20T03:38:35.641Z,0.00
2018-02-20T03:39:35.563Z,0.00
2018-02-20T03:40:35.540Z,0.00
2018-02-20T03:41:35.530Z,0.00
2018-02-20T03:42:35.570Z,0.00
2018-02-20T03:43:36.353Z,0.00
2018-02-20T03:44:35.441Z,0.00
2018-02-20T03:45:35.485Z,0.00
2018-02-20T03:46:35.404Z,0.00
2018-02-20T03:47:35.381Z,0.00
2018-02-20T03:48:35.342Z,0.00
2018-02-20T03:49:35.404Z,0.00
2018-02-20T03:50:35.289Z,0.00
2018-02-20T03:51:35.276Z,0.00
2018-02-20T03:52:35.247Z,0.00
2018-02-20T03:53:35.252Z,0.00
2018-02-20T03:54:35.181Z,0.00
2018-02-20T03:55:35.280Z,0.00
2018-02-20T03:56:35.210Z,0.00
2018-02-20T03:57:35.144Z,0.00
2018-02-20T03:58:35.090Z,0.00
2018-02-20T03:59:35.062Z,0.00
2018-02-20T04:00:35.150Z,0.00
2018-02-20T04:01:35.081Z,0.00
2018-02-20T04:02:35.002Z,0.00
2018-02-20T04:03:34.975Z,0.00
2018-02-20T04:04:34.952Z,0.00
2018-02-20T04:05:34.987Z,0.00
2018-02-20T04:06:34.883Z,0.00
2018-02-20T04:07:34.850Z,0.00
2018-02-20T04:08:34.845Z,0.00
2018-02-20T04:09:34.866Z,0.00
2018-02-20T04:10:34.880Z,0.00
2018-02-20T04:11:34.771Z,0.00
2018-02-20T04:12:34.739Z,0.00
2018-02-20T04:13:34.721Z,0.00
2018-02-20T04:14:34.692Z,0.00
2018-02-20T04:15:34.769Z,0.00
2018-02-20T04:16:34.642Z,0.00
2018-02-20T04:17:34.621Z,0.00
2018-02-20T04:18:34.595Z,0.00
2018-02-20T04:19:34.574Z,0.00
2018-02-20T04:20:34.644Z,0.00
2018-02-20T04:21:34.539Z,0.00
2018-02-20T04:22:34.498Z,0.00
2018-02-20T04:23:34.459Z,0.00
2018-02-20T04:24:34.447Z,0.00
2018-02-20T04:25:34.411Z,0.00
2018-02-20T04:26:34.529Z,0.00
2018-02-20T04:27:34.373Z,0.00
2018-02-20T04:28:34.345Z,0.00
2018-02-20T04:29:34.306Z,0.00
2018-02-20T04:30:34.301Z,0.00
2018-02-20T04:31:34.276Z,0.00
2018-02-20T04:32:34.336Z,0.00
2018-02-20T04:33:34.218Z,0.00
2018-02-20T04:34:34.182Z,0.00
2018-02-20T04:35:34.166Z,0.00
2018-02-20T04:36:34.131Z,0.00
2018-02-20T04:37:34.218Z,0.00
2018-02-20T04:38:34.094Z,0.00
2018-02-20T04:39:34.061Z,0.00
2018-02-20T04:40:34.030Z,0.00
2018-02-20T04:41:34.008Z,0.00
2018-02-20T04:42:34.190Z,0.00
2018-02-20T04:43:33.955Z,0.00
2018-02-20T04:44:33.933Z,0.00
2018-02-20T04:45:33.904Z,0.00
2018-02-20T04:46:33.953Z,0.00
2018-02-20T04:47:33.973Z,0.00
2018-02-20T04:48:33.833Z,0.00
2018-02-20T04:49:33.803Z,0.00
2018-02-20T04:50:33.790Z,0.00
2018-02-20T04:51:33.763Z,0.00
2018-02-20T04:52:33.829Z,0.00
2018-02-20T04:53:33.711Z,0.00
2018-02-20T04:54:33.682Z,0.00
2018-02-20T04:55:33.668Z,0.00
2018-02-20T04:56:33.633Z,0.00
2018-02-20T04:57:33.707Z,0.00
2018-02-20T04:58:33.618Z,0.00
2018-02-20T04:59:33.546Z,0.00
2018-02-20T05:00:33.528Z,0.00
2018-02-20T05:01:33.505Z,0.00
2018-02-20T05:02:33.583Z,0.00
2018-02-20T05:03:33.447Z,0.00
2018-02-20T05:04:33.428Z,0.00
2018-02-20T05:05:33.476Z,0.00
2018-02-20T05:06:33.366Z,0.00
2018-02-20T05:07:33.348Z,0.00
2018-02-20T05:08:33.436Z,0.00
2018-02-20T05:09:33.298Z,0.00
2018-02-20T05:10:33.264Z,0.00
2018-02-20T05:11:33.258Z,0.00
2018-02-20T05:12:33.209Z,0.00
2018-02-20T05:13:33.302Z,0.00
2018-02-20T05:14:33.178Z,0.00
2018-02-20T05:15:33.140Z,0.00
2018-02-20T05:16:33.134Z,0.00
2018-02-20T05:17:33.084Z,0.00
2018-02-20T05:18:33.224Z,0.00
2018-02-20T05:19:33.070Z,0.00
2018-02-20T05:20:33.022Z,0.00
2018-02-20T05:21:32.981Z,0.00
2018-02-20T05:22:32.953Z,0.00
2018-02-20T05:23:33.042Z,0.00
2018-02-20T05:24:32.951Z,0.00
2018-02-20T05:25:32.882Z,0.00
2018-02-20T05:26:32.862Z,0.00
2018-02-20T05:27:32.835Z,0.00
2018-02-20T05:28:32.924Z,0.00
2018-02-20T05:29:32.790Z,0.00
2018-02-20T05:30:32.774Z,0.00
2018-02-20T05:31:32.721Z,0.00
2018-02-20T05:32:32.709Z,0.00
2018-02-20T05:33:32.793Z,0.00
2018-02-20T05:34:32.665Z,0.00
2018-02-20T05:35:32.635Z,0.00
2018-02-20T05:36:32.614Z,0.00
2018-02-20T05:37:32.575Z,0.00
2018-02-20T05:38:32.642Z,0.00
2018-02-20T05:39:32.532Z,0.00
2018-02-20T05:40:32.503Z,0.00
2018-02-20T05:41:32.485Z,0.00
2018-02-20T05:42:32.455Z,0.00
2018-02-20T05:43:32.444Z,0.00
2018-02-20T05:44:32.500Z,0.00
2018-02-20T05:45:32.386Z,0.00
2018-02-20T05:46:32.356Z,0.00
2018-02-20T05:47:32.321Z,0.00
2018-02-20T05:48:32.305Z,0.00
2018-02-20T05:49:32.291Z,0.00
2018-02-20T05:50:32.358Z,0.00
2018-02-20T05:51:32.299Z,0.00
2018-02-20T05:52:32.208Z,0.00
2018-02-20T05:53:32.180Z,0.00
2018-02-20T05:54:32.139Z,0.00
2018-02-20T05:55:32.210Z,0.00
2018-02-20T05:56:32.078Z,0.00
2018-02-20T05:57:32.108Z,0.00
2018-02-20T05:58:32.034Z,0.00
2018-02-20T05:59:32.092Z,0.00
2018-02-20T06:00:32.097Z,0.00
2018-02-20T06:01:32.033Z,0.00
2018-02-20T06:02:31.935Z,0.00
2018-02-20T06:03:31.901Z,0.00
2018-02-20T06:04:31.914Z,0.00
2018-02-20T06:05:32.019Z,0.00
2018-02-20T06:06:31.832Z,0.00
2018-02-20T06:07:31.853Z,0.00
2018-02-20T06:08:31.779Z,0.00
2018-02-20T06:09:31.761Z,0.00
2018-02-20T06:10:31.875Z,0.00
2018-02-20T06:11:31.768Z,0.00
2018-02-20T06:12:31.675Z,0.00
2018-02-20T06:13:31.657Z,0.00
2018-02-20T06:14:31.633Z,0.00
2018-02-20T06:15:31.695Z,0.00
2018-02-20T06:16:31.582Z,0.00
2018-02-20T06:17:31.549Z,0.00
2018-02-20T06:18:31.593Z,0.00
2018-02-20T06:19:31.584Z,0.00
2018-02-20T06:20:31.568Z,0.00
2018-02-20T06:21:31.563Z,0.00
2018-02-20T06:22:31.417Z,0.00
2018-02-20T06:23:31.382Z,0.00
2018-02-20T06:24:31.376Z,0.00
2018-02-20T06:25:31.339Z,0.00
2018-02-20T06:26:31.327Z,0.00
2018-02-20T06:27:31.438Z,0.00
2018-02-20T06:28:31.276Z,0.00
2018-02-20T06:29:31.241Z,0.00
2018-02-20T06:30:31.209Z,0.00
2018-02-20T06:31:31.180Z,0.00
2018-02-20T06:32:31.298Z,0.00
2018-02-20T06:33:31.130Z,0.00
2018-02-20T06:34:31.106Z,0.00
2018-02-20T06:35:31.083Z,0.00
2018-02-20T06:36:31.051Z,0.00
2018-02-20T06:37:31.137Z,0.00
2018-02-20T06:38:31.003Z,0.00
2018-02-20T06:39:30.988Z,0.00
2018-02-20T06:40:30.957Z,0.00
2018-02-20T06:41:30.922Z,0.00
2018-02-20T06:42:31.008Z,0.00
2018-02-20T06:43:30.879Z,0.00
2018-02-20T06:44:30.853Z,0.00
2018-02-20T06:45:30.832Z,0.00
2018-02-20T06:46:30.788Z,0.00
2018-02-20T06:47:30.930Z,0.00
2018-02-20T06:48:30.746Z,0.00
2018-02-20T06:49:30.712Z,0.00
2018-02-20T06:50:30.753Z,0.00
2018-02-20T06:51:30.705Z,0.00
2018-02-20T06:52:30.695Z,0.00
2018-02-20T06:53:30.870Z,0.00
2018-02-20T06:54:30.575Z,0.00
2018-02-20T06:55:30.558Z,0.00
2018-02-20T06:56:30.532Z,0.00
2018-02-20T06:57:30.496Z,0.00
2018-02-20T06:58:30.486Z,0.00
2018-02-20T06:59:30.597Z,0.00
2018-02-20T07:00:30.418Z,0.00
2018-02-20T07:01:30.409Z,0.00
2018-02-20T07:02:30.369Z,0.00
2018-02-20T07:03:30.338Z,0.00
2018-02-20T07:04:30.360Z,0.00
2018-02-20T07:05:30.398Z,0.00
2018-02-20T07:06:30.257Z,0.00
2018-02-20T07:07:30.248Z,0.00
2018-02-20T07:08:30.230Z,0.00
2018-02-20T07:09:30.189Z,0.00
2018-02-20T07:10:30.268Z,0.00
2018-02-20T07:11:30.129Z,0.00
2018-02-20T07:12:30.120Z,0.00
2018-02-20T07:13:30.084Z,0.00
2018-02-20T07:14:30.175Z,0.00
2018-02-20T07:15:30.238Z,0.00
2018-02-20T07:16:30.012Z,0.00
2018-02-20T07:17:30.021Z,0.00
2018-02-20T07:18:29.989Z,0.00
2018-02-20T07:19:29.921Z,0.00
2018-02-20T07:20:29.993Z,0.00
2018-02-20T07:21:29.882Z,0.00
2018-02-20T07:22:29.864Z,0.00
2018-02-20T07:23:29.811Z,0.00
2018-02-20T07:24:29.800Z,0.00
2018-02-20T07:25:29.903Z,0.00
2018-02-20T07:26:29.734Z,0.00
2018-02-20T07:27:29.733Z,0.00
2018-02-20T07:28:29.706Z,0.00
2018-02-20T07:29:29.653Z,0.00
2018-02-20T07:30:29.642Z,0.00
2018-02-20T07:31:29.714Z,0.00
2018-02-20T07:32:29.639Z,0.00
2018-02-20T07:33:29.557Z,0.00
2018-02-20T07:34:29.526Z,0.00
2018-02-20T07:35:29.499Z,0.00
2018-02-20T07:36:29.564Z,0.00
2018-02-20T07:37:29.452Z,0.00
2018-02-20T07:38:29.490Z,0.00
2018-02-20T07:39:29.387Z,0.00
2018-02-20T07:40:29.406Z,0.00
2018-02-20T07:41:29.335Z,0.00
2018-02-20T07:42:29.493Z,0.00
2018-02-20T07:43:29.294Z,0.00
2018-02-20T07:44:29.258Z,0.00
2018-02-20T07:45:29.255Z,0.00
2018-02-20T07:46:29.213Z,0.00
2018-02-20T07:47:29.282Z,0.00
2018-02-20T07:48:29.148Z,0.00
2018-02-20T07:49:29.145Z,0.00
2018-02-20T07:50:29.118Z,0.00
2018-02-20T07:51:29.068Z,0.00
2018-02-20T07:52:29.159Z,0.00
2018-02-20T07:53:29.023Z,0.00
2018-02-20T07:54:29.003Z,0.00
2018-02-20T07:55:28.971Z,0.00
2018-02-20T07:56:28.943Z,0.00
2018-02-20T07:57:29.011Z,0.00
2018-02-20T07:58:28.941Z,0.00
2018-02-20T07:59:28.863Z,0.00
2018-02-20T08:00:28.835Z,0.00
2018-02-20T08:01:28.850Z,0.00
2018-02-20T08:02:28.780Z,0.00
2018-02-20T08:03:28.852Z,0.00
2018-02-20T08:04:28.733Z,0.00
2018-02-20T08:05:28.722Z,0.00
2018-02-20T08:06:28.674Z,0.00
2018-02-20T08:07:28.677Z,0.00
2018-02-20T08:08:28.725Z,0.00
2018-02-20T08:09:28.599Z,0.00
2018-02-20T08:10:28.587Z,0.00
2018-02-20T08:11:28.594Z,0.00
2018-02-20T08:12:28.516Z,0.00
2018-02-20T08:13:28.602Z,0.00
2018-02-20T08:14:28.454Z,0.00
2018-02-20T08:15:28.492Z,0.00
2018-02-20T08:16:28.403Z,0.00
2018-02-20T08:17:28.391Z,0.00
2018-02-20T08:18:28.364Z,0.00
2018-02-20T08:19:28.423Z,0.00
2018-02-20T08:20:28.308Z,0.00
2018-02-20T08:21:28.269Z,0.00
2018-02-20T08:22:28.250Z,0.00
2018-02-20T08:23:28.222Z,0.00
2018-02-20T08:24:28.328Z,0.00
2018-02-20T08:25:28.156Z,0.00
2018-02-20T08:26:28.138Z,0.00
2018-02-20T08:27:28.111Z,0.00
2018-02-20T08:28:28.089Z,0.00
2018-02-20T08:29:28.162Z,0.00
2018-02-20T08:30:28.038Z,0.00
2018-02-20T08:31:28.015Z,0.00
2018-02-20T08:32:27.994Z,0.00
2018-02-20T08:33:27.958Z,0.00
2018-02-20T08:34:27.919Z,0.00
2018-02-20T08:35:28.008Z,0.00
2018-02-20T08:36:27.871Z,0.00
2018-02-20T08:37:27.839Z,0.00
2018-02-20T08:38:27.809Z,0.00
2018-02-20T08:39:27.779Z,0.00
2018-02-20T08:40:27.778Z,0.00
2018-02-20T08:41:27.840Z,0.00
2018-02-20T08:42:27.746Z,0.00
2018-02-20T08:43:27.687Z,0.00
2018-02-20T08:44:27.652Z,0.00
2018-02-20T08:45:27.644Z,0.00
2018-02-20T08:46:27.691Z,0.00
2018-02-20T08:47:27.573Z,0.00
2018-02-20T08:48:27.537Z,0.00
2018-02-20T08:49:27.514Z,0.00
2018-02-20T08:50:27.490Z,0.00
2018-02-20T08:51:27.464Z,0.00
2018-02-20T08:52:27.544Z,0.00
2018-02-20T08:53:27.415Z,0.00
2018-02-20T08:54:27.368Z,0.00
2018-02-20T08:55:27.353Z,0.00
2018-02-20T08:56:27.334Z,0.00
2018-02-20T08:57:27.293Z,0.00
2018-02-20T08:58:27.376Z,0.00
2018-02-20T08:59:27.255Z,0.00
2018-02-20T09:00:27.233Z,0.00
2018-02-20T09:01:27.194Z,0.00
2018-02-20T09:02:27.168Z,0.00
2018-02-20T09:03:27.298Z,0.00
2018-02-20T09:04:27.124Z,0.00
2018-02-20T09:05:27.094Z,0.00
2018-02-20T09:06:27.058Z,0.00
2018-02-20T09:07:27.028Z,0.00
2018-02-20T09:08:27.159Z,0.00
2018-02-20T09:09:26.985Z,0.00
2018-02-20T09:10:26.956Z,0.00
2018-02-20T09:11:26.918Z,0.00
2018-02-20T09:12:26.891Z,0.00
2018-02-20T09:13:26.860Z,0.00
2018-02-20T09:14:26.947Z,0.00
2018-02-20T09:15:26.819Z,0.00
2018-02-20T09:16:26.798Z,0.00
2018-02-20T09:17:26.750Z,0.00
2018-02-20T09:18:26.719Z,0.00
2018-02-20T09:19:26.801Z,0.00
2018-02-20T09:20:26.680Z,0.00
2018-02-20T09:21:26.641Z,0.00
2018-02-20T09:22:26.614Z,0.00
2018-02-20T09:23:26.598Z,0.00
2018-02-20T09:24:26.661Z,0.00
2018-02-20T09:25:26.533Z,0.00
2018-02-20T09:26:26.501Z,0.00
2018-02-20T09:27:26.492Z,0.00
2018-02-20T09:28:26.453Z,0.00
2018-02-20T09:29:26.440Z,0.00
2018-02-20T09:30:26.493Z,0.00
2018-02-20T09:31:26.364Z,0.00
2018-02-20T09:32:26.343Z,0.00
2018-02-20T09:33:26.313Z,0.00
2018-02-20T09:34:26.292Z,0.00
2018-02-20T09:35:26.252Z,0.00
2018-02-20T09:36:26.343Z,0.00
2018-02-20T09:37:26.216Z,0.00
2018-02-20T09:38:26.176Z,0.00
2018-02-20T09:39:26.163Z,0.00
2018-02-20T09:40:26.137Z,0.00
2018-02-20T09:41:26.200Z,0.00
2018-02-20T09:42:26.069Z,0.00
2018-02-20T09:43:26.048Z,0.00
2018-02-20T09:44:26.009Z,0.00
2018-02-20T09:45:25.993Z,0.00
2018-02-20T09:46:26.024Z,0.00
2018-02-20T09:47:26.029Z,0.00
2018-02-20T09:48:25.897Z,0.00
2018-02-20T09:49:25.867Z,0.00
2018-02-20T09:50:25.847Z,0.00
2018-02-20T09:51:25.828Z,0.00
2018-02-20T09:52:25.898Z,0.00
2018-02-20T09:53:25.771Z,0.00
2018-02-20T09:54:25.749Z,0.00
2018-02-20T09:55:25.715Z,0.00
2018-02-20T09:56:25.679Z,0.00
2018-02-20T09:57:25.760Z,0.00
2018-02-20T09:58:25.639Z,0.00
2018-02-20T09:59:25.647Z,0.00
2018-02-20T10:00:25.587Z,0.00
2018-02-20T10:01:25.541Z,0.00
2018-02-20T10:02:25.612Z,0.00
2018-02-20T10:03:25.486Z,0.00
2018-02-20T10:04:25.468Z,0.00
2018-02-20T10:05:25.432Z,0.00
2018-02-20T10:06:25.397Z,0.00
2018-02-20T10:07:25.373Z,0.00
2018-02-20T10:08:25.452Z,0.00
2018-02-20T10:09:25.331Z,0.00
2018-02-20T10:10:25.292Z,0.00
2018-02-20T10:11:25.259Z,0.00
2018-02-20T10:12:25.234Z,0.00
2018-02-20T10:13:25.303Z,0.00
2018-02-20T10:14:25.188Z,0.00
2018-02-20T10:15:25.152Z,0.00
2018-02-20T10:16:25.124Z,0.00
2018-02-20T10:17:25.100Z,0.00
2018-02-20T10:18:25.117Z,0.00
2018-02-20T10:19:25.128Z,0.00
2018-02-20T10:20:25.014Z,0.00
2018-02-20T10:21:24.984Z,0.00
2018-02-20T10:22:24.966Z,0.00
2018-02-20T10:23:24.926Z,0.00
2018-02-20T10:24:25.027Z,0.00
2018-02-20T10:25:24.888Z,0.00
2018-02-20T10:26:24.850Z,0.00
2018-02-20T10:27:24.828Z,0.00
2018-02-20T10:28:24.789Z,0.00
2018-02-20T10:29:24.874Z,0.00
2018-02-20T10:30:24.737Z,0.00
2018-02-20T10:31:24.716Z,0.00
2018-02-20T10:32:24.679Z,0.00
2018-02-20T10:33:24.645Z,0.00
2018-02-20T10:34:24.735Z,0.00
2018-02-20T10:35:24.588Z,0.00
2018-02-20T10:36:24.577Z,0.00
2018-02-20T10:37:24.538Z,0.00
2018-02-20T10:38:24.522Z,0.00
2018-02-20T10:39:24.528Z,0.00
2018-02-20T10:40:24.561Z,0.00
2018-02-20T10:41:24.452Z,0.00
2018-02-20T10:42:24.421Z,0.00
2018-02-20T10:43:24.371Z,0.00
2018-02-20T10:44:24.357Z,0.00
2018-02-20T10:45:24.332Z,0.00
2018-02-20T10:46:24.399Z,0.00
2018-02-20T10:47:24.262Z,0.00
2018-02-20T10:48:24.243Z,0.00
2018-02-20T10:49:24.219Z,0.00
2018-02-20T10:50:24.182Z,0.00
2018-02-20T10:51:24.234Z,0.00
2018-02-20T10:52:24.306Z,0.00
2018-02-20T10:53:24.094Z,0.00
2018-02-20T10:54:24.067Z,0.00
2018-02-20T10:55:24.041Z,0.00
2018-02-20T10:56:24.059Z,0.00
2018-02-20T10:57:24.086Z,0.00
2018-02-20T10:58:24.072Z,0.00
2018-02-20T10:59:23.919Z,0.00
2018-02-20T11:00:23.915Z,0.00
2018-02-20T11:01:23.951Z,0.00
2018-02-20T11:02:23.946Z,0.00
2018-02-20T11:03:23.868Z,0.00
2018-02-20T11:04:23.785Z,0.00
2018-02-20T11:05:23.774Z,0.00
2018-02-20T11:06:23.736Z,0.00
2018-02-20T11:07:23.807Z,0.00
2018-02-20T11:08:23.676Z,0.00
2018-02-20T11:09:23.647Z,0.00
2018-02-20T11:10:23.630Z,0.00
2018-02-20T11:11:23.598Z,0.00
2018-02-20T11:12:23.667Z,0.00
2018-02-20T11:13:23.590Z,0.00
2018-02-20T11:14:23.518Z,0.00
2018-02-20T11:15:23.487Z,0.00
2018-02-20T11:16:23.542Z,0.00
2018-02-20T11:17:23.432Z,0.00
2018-02-20T11:18:23.501Z,0.00
2018-02-20T11:19:23.372Z,0.00
2018-02-20T11:20:23.390Z,0.00
2018-02-20T11:21:23.340Z,0.00
2018-02-20T11:22:23.289Z,0.00
2018-02-20T11:23:23.260Z,0.00
2018-02-20T11:24:23.329Z,0.00
2018-02-20T11:25:23.216Z,0.00
2018-02-20T11:26:23.200Z,0.00
2018-02-20T11:27:23.161Z,0.00
2018-02-20T11:28:23.120Z,0.00
2018-02-20T11:29:23.196Z,0.00
2018-02-20T11:30:23.062Z,0.00
2018-02-20T11:31:23.052Z,0.00
2018-02-20T11:32:23.012Z,0.00
2018-02-20T11:33:23.006Z,0.00
2018-02-20T11:34:23.053Z,0.00
2018-02-20T11:35:22.918Z,0.00
2018-02-20T11:36:22.902Z,0.00
2018-02-20T11:37:22.891Z,0.00
2018-02-20T11:38:22.883Z,0.00
2018-02-20T11:39:22.925Z,0.00
2018-02-20T11:40:22.786Z,0.00
2018-02-20T11:41:22.765Z,0.00
2018-02-20T11:42:22.735Z,0.00
2018-02-20T11:43:22.726Z,4.00
2018-02-20T11:44:22.776Z,0.00
2018-02-20T11:45:22.725Z,4.00
2018-02-20T11:46:22.637Z,4.00
2018-02-20T11:47:22.603Z,4.00
2018-02-20T11:48:22.571Z,4.00
2018-02-20T11:49:22.659Z,8.00
2018-02-20T11:50:22.509Z,8.00
2018-02-20T11:51:22.535Z,12.00
2018-02-20T11:52:22.468Z,12.00
2018-02-20T11:53:22.427Z,16.00
2018-02-20T11:54:22.407Z,20.00
2018-02-20T11:55:22.478Z,24.00
2018-02-20T11:56:22.350Z,28.00
2018-02-20T11:57:22.319Z,32.00
2018-02-20T11:58:22.311Z,40.00
2018-02-20T11:59:22.259Z,44.00
2018-02-20T12:00:22.230Z,52.00
2018-02-20T12:01:22.319Z,56.00
2018-02-20T12:02:22.174Z,64.00
2018-02-20T12:03:22.140Z,72.00
2018-02-20T12:04:22.390Z,84.00
2018-02-20T12:05:22.071Z,96.00
2018-02-20T12:06:22.160Z,104.00
2018-02-20T12:07:22.026Z,120.00
2018-02-20T12:08:21.987Z,132.00
2018-02-20T12:09:22.001Z,140.00
2018-02-20T12:10:21.959Z,152.00
2018-02-20T12:11:22.022Z,168.00
2018-02-20T12:12:21.894Z,184.00
2018-02-20T12:13:21.860Z,200.00
2018-02-20T12:14:21.832Z,220.00
2018-02-20T12:15:21.828Z,248.00
2018-02-20T12:16:21.924Z,256.00
2018-02-20T12:17:21.758Z,264.00
2018-02-20T12:18:21.725Z,280.00
2018-02-20T12:19:21.693Z,300.00
2018-02-20T12:20:21.712Z,316.00
2018-02-20T12:21:21.755Z,340.00
2018-02-20T12:22:21.615Z,368.00
2018-02-20T12:23:21.594Z,392.00
2018-02-20T12:24:21.566Z,408.00
2018-02-20T12:25:21.528Z,424.00
2018-02-20T12:26:21.607Z,456.00
2018-02-20T12:27:21.480Z,444.00
2018-02-20T12:28:21.445Z,448.00
2018-02-20T12:29:21.416Z,464.00
2018-02-20T12:30:21.663Z,480.00
2018-02-20T12:31:21.415Z,496.00
2018-02-20T12:32:21.437Z,512.00
2018-02-20T12:33:21.308Z,528.00
2018-02-20T12:34:21.314Z,544.00
2018-02-20T12:35:21.320Z,560.00
2018-02-20T12:36:21.216Z,580.00
2018-02-20T12:37:21.304Z,596.00
2018-02-20T12:38:21.179Z,620.00
2018-02-20T12:39:21.144Z,640.00
2018-02-20T12:40:21.110Z,668.00
2018-02-20T12:41:21.105Z,692.00
2018-02-20T12:42:21.160Z,728.00
2018-02-20T12:43:21.038Z,748.00
2018-02-20T12:44:21.015Z,772.00
2018-02-20T12:45:21.013Z,800.00
2018-02-20T12:46:20.960Z,820.00
2018-02-20T12:47:20.996Z,836.00
2018-02-20T12:48:20.898Z,860.00
2018-02-20T12:49:20.912Z,872.00
2018-02-20T12:50:20.848Z,896.00
2018-02-20T12:51:20.813Z,912.00
2018-02-20T12:52:20.891Z,928.00
2018-02-20T12:53:20.751Z,948.00
2018-02-20T12:54:20.742Z,968.00
2018-02-20T12:55:20.711Z,1008.00
2018-02-20T12:56:20.673Z,1280.00
2018-02-20T12:57:20.742Z,1956.00
2018-02-20T12:58:20.621Z,2720.00
2018-02-20T12:59:20.592Z,2952.00
2018-02-20T13:00:20.563Z,2900.00
2018-02-20T13:01:20.550Z,2704.00
2018-02-20T13:02:20.526Z,2340.00
2018-02-20T13:03:20.596Z,1936.00
2018-02-20T13:04:20.471Z,1484.00
2018-02-20T13:05:20.448Z,1204.00
2018-02-20T13:06:20.407Z,1120.00
2018-02-20T13:07:20.381Z,1096.00
2018-02-20T13:08:20.351Z,1092.00
2018-02-20T13:09:20.444Z,1108.00
2018-02-20T13:10:20.316Z,1116.00
2018-02-20T13:11:20.275Z,1136.00
2018-02-20T13:12:20.268Z,1148.00